Time;durP1;ratioP1;P1;durP2;ratioP2;P2;SDS_P1;SDS_P2;PMS_P1;PMS_P2;Temp;Humidity;BMP_temperature;BMP_pressure;BME280_temperature;BME280_humidity;BME280_pressure;Samples;Min_cycle;Max_cycle;Signal;HPM_P1;HPM_P2
2023/03/10 00:01:17;;;;;;;1999.90;999.90;;;11.50;99.90;;;;;;5015051;28;20790;-68
2023/03/10 00:03:43;;;;;;;1999.90;999.90;;;11.40;99.90;;;;;;5014834;28;20414;-69
2023/03/10 00:06:12;;;;;;;1999.90;999.90;;;11.40;99.90;;;;;;5014968;28;20408;-69
2023/03/10 00:08:38;;;;;;;1999.90;999.90;;;11.40;99.90;;;;;;5014741;28;20419;-69
2023/03/10 00:11:04;;;;;;;1999.90;999.90;;;11.30;99.90;;;;;;5014405;28;20450;-69
2023/03/10 00:13:30;;;;;;;1999.90;999.90;;;11.30;99.90;;;;;;5014054;28;20889;-69
2023/03/10 00:15:56;;;;;;;1999.90;999.90;;;11.30;99.90;;;;;;5014006;28;20416;-69
2023/03/10 00:18:21;;;;;;;1999.90;999.90;;;11.20;99.90;;;;;;5014074;28;20209;-69
2023/03/10 00:20:51;;;;;;;1999.90;999.90;;;11.20;99.90;;;;;;5014226;28;20246;-68
2023/03/10 00:23:16;;;;;;;1999.90;999.90;;;11.20;99.90;;;;;;5013872;28;20412;-68
2023/03/10 00:25:42;;;;;;;1999.90;999.90;;;11.10;99.90;;;;;;5014025;28;20909;-69
2023/03/10 00:28:07;;;;;;;1999.90;999.90;;;11.10;99.90;;;;;;5013867;28;20181;-68
2023/03/10 00:30:34;;;;;;;1999.90;999.90;;;11.10;99.90;;;;;;5013994;28;20270;-68
2023/03/10 00:33:01;;;;;;;1999.90;999.90;;;11.00;99.90;;;;;;5014037;28;20209;-68
2023/03/10 00:35:26;;;;;;;1999.90;999.90;;;11.00;99.90;;;;;;5013895;28;20419;-68
2023/03/10 00:37:53;;;;;;;1999.90;999.90;;;11.00;99.90;;;;;;5013699;28;21210;-68
2023/03/10 00:40:19;;;;;;;1999.90;999.90;;;11.30;99.90;;;;;;5013691;28;20176;-68
2023/03/10 00:42:45;;;;;;;1999.90;999.90;;;11.10;99.90;;;;;;5013461;28;20411;-68
2023/03/10 00:45:10;;;;;;;1999.90;999.90;;;11.10;99.90;;;;;;5013636;28;20619;-68
2023/03/10 00:47:36;;;;;;;1999.90;999.90;;;11.10;99.90;;;;;;5013606;28;20200;-68
2023/03/10 00:50:02;;;;;;;1999.90;999.90;;;;;;;;;;5013726;28;20180;-68
2023/03/10 00:52:31;;;;;;;1999.90;999.90;;;11.20;99.90;;;;;;5013612;28;20260;-69
2023/03/10 00:54:57;;;;;;;1999.90;999.90;;;11.20;99.90;;;;;;5014210;28;20412;-68
2023/03/10 00:57:23;;;;;;;1999.90;999.90;;;11.10;99.90;;;;;;5014158;28;20416;-68
2023/03/10 00:59:51;;;;;;;1999.90;999.90;;;11.00;99.90;;;;;;5013611;28;20511;-68
2023/03/10 01:02:18;;;;;;;1999.90;999.90;;;11.00;99.90;;;;;;5013114;28;20184;-69
2023/03/10 01:04:45;;;;;;;1999.90;999.90;;;10.90;99.90;;;;;;5013321;28;20404;-67
2023/03/10 01:07:10;;;;;;;1999.90;999.90;;;10.90;99.90;;;;;;5013210;28;20438;-66
2023/03/10 01:09:36;;;;;;;1999.90;999.90;;;10.80;99.90;;;;;;5013316;28;20905;-66
2023/03/10 01:12:02;;;;;;;1999.90;999.90;;;10.80;99.90;;;;;;5012764;28;20303;-67
2023/03/10 01:14:27;;;;;;;1999.90;999.90;;;10.80;99.90;;;;;;5013185;28;20193;-68
2023/03/10 01:16:53;;;;;;;1999.90;999.90;;;10.80;99.90;;;;;;5012965;28;20227;-67
2023/03/10 01:19:18;;;;;;;1999.90;999.90;;;10.80;99.90;;;;;;5012970;28;20204;-67
2023/03/10 01:21:44;;;;;;;1999.90;999.90;;;10.80;99.90;;;;;;5012804;28;20188;-67
2023/03/10 01:24:14;;;;;;;1999.90;999.90;;;10.80;99.90;;;;;;5013061;28;20184;-69
2023/03/10 01:26:40;;;;;;;1999.90;999.90;;;10.80;99.90;;;;;;5012831;28;20554;-67
2023/03/10 01:29:06;;;;;;;1999.90;999.90;;;10.80;99.90;;;;;;5012893;28;20424;-68
2023/03/10 01:31:31;;;;;;;1999.90;999.90;;;10.80;99.90;;;;;;5012625;28;20224;-66
2023/03/10 01:33:57;;;;;;;1999.90;999.90;;;10.90;99.90;;;;;;5012882;28;20185;-67
2023/03/10 01:36:25;;;;;;;1999.90;999.90;;;10.80;99.90;;;;;;5012661;28;20172;-66
2023/03/10 01:38:51;;;;;;;1999.90;999.90;;;10.80;99.90;;;;;;5012671;28;20201;-67
2023/03/10 01:41:17;;;;;;;1999.90;999.90;;;10.90;99.90;;;;;;5012559;28;20417;-67
2023/03/10 01:43:45;;;;;;;1999.90;999.90;;;10.80;99.90;;;;;;5012671;28;20772;-66
2023/03/10 01:46:30;;;;;;;1999.90;999.90;;;10.80;99.90;;;;;;5012446;28;20466;-66
2023/03/10 01:49:00;;;;;;;1999.90;999.90;;;10.80;99.90;;;;;;5012597;28;20415;-66
2023/03/10 01:51:28;;;;;;;1999.90;999.90;;;10.80;99.90;;;;;;5012512;28;20440;-66
2023/03/10 01:53:54;;;;;;;1999.90;999.90;;;10.80;99.90;;;;;;5012491;28;20485;-66
2023/03/10 01:56:19;;;;;;;1999.90;999.90;;;10.80;99.90;;;;;;5012474;28;20414;-67
2023/03/10 01:58:46;;;;;;;1999.90;999.90;;;10.70;99.90;;;;;;5012560;28;20304;-67
2023/03/10 02:01:14;;;;;;;1999.90;999.90;;;10.80;99.90;;;;;;5012502;28;20586;-68
2023/03/10 02:03:54;;;;;;;1999.90;999.90;;;10.80;99.90;;;;;;5012572;28;20444;-68
2023/03/10 02:06:22;;;;;;;1999.90;999.90;;;10.80;99.90;;;;;;5012364;28;20416;-67
2023/03/10 02:09:00;;;;;;;1999.90;999.90;;;10.90;99.90;;;;;;5012317;28;20400;-67
2023/03/10 02:11:25;;;;;;;1999.90;999.90;;;10.90;99.90;;;;;;5011289;28;20991;-66
2023/03/10 02:13:53;;;;;;;1999.90;999.90;;;11.00;99.90;;;;;;5012102;28;20507;-67
2023/03/10 02:16:19;;;;;;;1999.90;999.90;;;11.00;99.90;;;;;;5012278;28;20180;-68
2023/03/10 02:18:46;;;;;;;1999.90;999.90;;;11.00;99.90;;;;;;5012202;28;20650;-67
2023/03/10 02:21:36;;;;;;;1999.90;999.90;;;11.00;99.90;;;;;;5012464;28;20434;-67
2023/03/10 02:24:30;;;;;;;1999.90;999.90;;;10.90;99.90;;;;;;5012310;28;20415;-66
2023/03/10 02:27:02;;;;;;;1999.90;999.90;;;10.70;99.90;;;;;;5012010;28;20419;-67
2023/03/10 02:29:45;;;;;;;1999.90;999.90;;;10.70;99.90;;;;;;5012030;28;20886;-67
2023/03/10 02:32:12;;;;;;;1999.90;999.90;;;10.70;99.90;;;;;;5011862;28;20517;-67
2023/03/10 02:34:38;;;;;;;1999.90;999.90;;;10.60;99.90;;;;;;5012143;28;20796;-67
2023/03/10 02:37:04;;;;;;;1999.90;999.90;;;10.50;99.90;;;;;;5011917;28;20418;-66
2023/03/10 02:39:29;;;;;;;1999.90;999.90;;;10.40;99.90;;;;;;5011897;28;20230;-67
2023/03/10 02:41:55;;;;;;;1999.90;999.90;;;10.50;99.90;;;;;;5011753;28;20318;-67
2023/03/10 02:44:23;;;;;;;1999.90;999.90;;;10.50;99.90;;;;;;5011952;28;20222;-67
2023/03/10 02:46:49;;;;;;;1999.90;999.90;;;10.40;99.90;;;;;;5011930;28;20248;-67
2023/03/10 02:49:17;;;;;;;1999.90;999.90;;;10.60;99.90;;;;;;5011893;28;20438;-66
2023/03/10 02:51:46;;;;;;;1999.90;999.90;;;10.50;99.90;;;;;;5011739;28;20437;-66
2023/03/10 02:54:12;;;;;;;1999.90;999.90;;;10.50;99.90;;;;;;5011811;28;20422;-66
2023/03/10 02:56:38;;;;;;;1999.90;999.90;;;10.50;99.90;;;;;;5011749;28;20494;-67
2023/03/10 02:59:05;;;;;;;1999.90;999.90;;;10.50;99.90;;;;;;5011790;28;21236;-67
2023/03/10 03:01:31;;;;;;;1999.90;999.90;;;10.40;99.90;;;;;;5011620;28;20778;-67
2023/03/10 03:03:57;;;;;;;1999.90;999.90;;;10.50;99.90;;;;;;5011816;28;20407;-67
2023/03/10 03:06:22;;;;;;;1999.90;999.90;;;10.40;99.90;;;;;;5011731;28;20192;-68
2023/03/10 03:08:48;;;;;;;1999.90;999.90;;;10.40;99.90;;;;;;5011796;28;20779;-66
2023/03/10 03:11:14;;;;;;;1999.90;999.90;;;10.50;99.90;;;;;;5011593;28;20322;-68
2023/03/10 03:13:40;;;;;;;1999.90;999.90;;;10.50;99.90;;;;;;5011613;28;20549;-68
2023/03/10 03:16:07;;;;;;;1999.90;999.90;;;10.40;99.90;;;;;;5011613;28;20415;-67
2023/03/10 03:18:33;;;;;;;1999.90;999.90;;;10.40;99.90;;;;;;5011683;28;20577;-67
2023/03/10 03:21:06;;;;;;;1999.90;999.90;;;10.30;99.90;;;;;;5011558;28;20431;-66
2023/03/10 03:23:33;;;;;;;1999.90;999.90;;;10.30;99.90;;;;;;5013969;28;20201;-66
2023/03/10 03:25:59;;;;;;;1999.90;999.90;;;10.30;99.90;;;;;;5015128;28;20787;-67
2023/03/10 03:28:25;;;;;;;1999.90;999.90;;;10.30;99.90;;;;;;5015074;28;20423;-66
2023/03/10 03:30:50;;;;;;;1999.90;999.90;;;10.40;99.90;;;;;;5015157;28;20196;-68
2023/03/10 03:33:16;;;;;;;1999.90;999.90;;;10.40;99.90;;;;;;5014954;28;20651;-68
2023/03/10 03:35:43;;;;;;;1999.90;999.90;;;10.30;99.90;;;;;;5014941;28;20214;-66
2023/03/10 03:38:08;;;;;;;1999.90;999.90;;;10.30;99.90;;;;;;5014871;28;20672;-66
2023/03/10 03:40:35;;;;;;;1999.90;999.90;;;10.30;99.90;;;;;;5014855;28;20424;-65
2023/03/10 03:43:01;;;;;;;1999.90;999.90;;;10.30;99.90;;;;;;5014766;28;20208;-66
2023/03/10 03:45:28;;;;;;;1999.90;999.90;;;10.30;99.90;;;;;;5014844;28;20459;-67
2023/03/10 03:47:54;;;;;;;1999.90;999.90;;;10.20;99.90;;;;;;5014607;28;20416;-65
2023/03/10 03:50:21;;;;;;;1999.90;999.90;;;10.30;99.90;;;;;;5014590;28;20414;-65
2023/03/10 03:52:47;;;;;;;1999.90;999.90;;;10.20;99.90;;;;;;5014775;28;20547;-67
2023/03/10 03:55:14;;;;;;;1999.90;999.90;;;10.20;99.90;;;;;;5014644;28;20412;-66
2023/03/10 03:57:41;;;;;;;1999.90;999.90;;;10.10;99.90;;;;;;5014428;28;20247;-66
2023/03/10 04:00:10;;;;;;;1999.90;999.90;;;10.10;99.90;;;;;;5014531;28;20445;-65
2023/03/10 04:02:36;;;;;;;1999.90;999.90;;;10.10;99.90;;;;;;5014781;28;20487;-67
2023/03/10 04:05:03;;;;;;;1999.90;999.90;;;10.10;99.90;;;;;;5014392;28;20454;-67
2023/03/10 04:07:29;;;;;;;1999.90;999.90;;;10.10;99.90;;;;;;5014470;28;20184;-68
2023/03/10 04:09:55;;;;;;;1999.90;999.90;;;10.00;99.90;;;;;;5014229;28;20534;-68
2023/03/10 04:12:20;;;;;;;1999.90;999.90;;;10.00;99.90;;;;;;5014084;28;20187;-68
2023/03/10 04:14:46;;;;;;;1999.90;999.90;;;10.00;99.90;;;;;;5014364;28;20410;-67
2023/03/10 04:17:12;;;;;;;1999.90;999.90;;;10.00;99.90;;;;;;5014211;28;20169;-66
2023/03/10 04:19:37;;;;;;;1999.90;999.90;;;10.00;99.90;;;;;;5014028;28;20299;-68
2023/03/10 04:22:03;;;;;;;1999.90;999.90;;;10.10;99.90;;;;;;5013893;28;20554;-67
2023/03/10 04:24:28;;;;;;;1999.90;999.90;;;10.00;99.90;;;;;;5014102;28;20176;-66
2023/03/10 04:26:54;;;;;;;1999.90;999.90;;;10.10;99.90;;;;;;5013930;28;20168;-67
2023/03/10 04:29:23;;;;;;;1999.90;999.90;;;10.20;99.90;;;;;;5013969;28;20180;-67
2023/03/10 04:31:50;;;;;;;1999.90;999.90;;;10.00;99.90;;;;;;5013760;28;20206;-67
2023/03/10 04:34:15;;;;;;;1999.90;999.90;;;10.10;99.90;;;;;;5012876;28;20419;-67
2023/03/10 04:36:41;;;;;;;1999.90;999.90;;;10.20;99.90;;;;;;5013736;28;20458;-67
2023/03/10 04:39:08;;;;;;;1999.90;999.90;;;10.10;99.90;;;;;;5013671;28;20262;-67
2023/03/10 04:41:35;;;;;;;1999.90;999.90;;;10.00;99.90;;;;;;5013439;28;20189;-68
2023/03/10 04:44:01;;;;;;;1999.90;999.90;;;10.00;99.90;;;;;;5013741;28;20502;-67
2023/03/10 04:46:26;;;;;;;1999.90;999.90;;;9.90;99.90;;;;;;5013510;28;20427;-66
2023/03/10 04:48:54;;;;;;;1999.90;999.90;;;9.90;99.90;;;;;;5013580;28;20407;-67
2023/03/10 04:51:20;;;;;;;1999.90;999.90;;;9.80;99.90;;;;;;5013951;28;20275;-66
2023/03/10 04:53:45;;;;;;;1999.90;999.90;;;9.80;99.90;;;;;;5013385;28;20419;-66
2023/03/10 04:56:11;;;;;;;1999.90;999.90;;;9.90;99.90;;;;;;5013320;28;20176;-66
2023/03/10 04:58:37;;;;;;;1999.90;999.90;;;9.80;99.90;;;;;;5013410;28;20316;-67
2023/03/10 05:01:08;;;;;;;1999.90;999.90;;;9.80;99.90;;;;;;5013291;28;20193;-66
2023/03/10 05:03:33;;;;;;;1999.90;999.90;;;9.80;99.90;;;;;;5013379;28;20178;-66
2023/03/10 05:05:59;;;;;;;1999.90;999.90;;;10.00;99.90;;;;;;5013255;28;20412;-66
2023/03/10 05:08:24;;;;;;;1999.90;999.90;;;10.00;99.90;;;;;;5013357;28;20592;-67
2023/03/10 05:10:50;;;;;;;1999.90;999.90;;;10.10;99.90;;;;;;5013027;28;20207;-67
2023/03/10 05:13:15;;;;;;;1999.90;999.90;;;10.20;99.90;;;;;;5013087;28;20179;-66
2023/03/10 05:15:41;;;;;;;1999.90;999.90;;;10.20;99.90;;;;;;5013122;28;20178;-66
2023/03/10 05:18:09;;;;;;;1999.90;999.90;;;10.20;99.90;;;;;;5012958;28;20598;-66
2023/03/10 05:20:35;;;;;;;1999.90;999.90;;;10.30;99.90;;;;;;5013042;28;20192;-66
2023/03/10 05:23:01;;;;;;;1999.90;999.90;;;10.40;99.90;;;;;;5012895;28;20502;-66
2023/03/10 05:25:27;;;;;;;1999.90;999.90;;;10.40;99.90;;;;;;5012933;28;20460;-66
2023/03/10 05:27:52;;;;;;;1999.90;999.90;;;10.40;99.90;;;;;;5012901;28;20419;-66
2023/03/10 05:30:18;;;;;;;1999.90;999.90;;;10.40;99.90;;;;;;5012937;28;20187;-66
2023/03/10 05:32:44;;;;;;;1999.90;999.90;;;10.40;99.90;;;;;;5012678;28;20633;-67
2023/03/10 05:35:11;;;;;;;1999.90;999.90;;;10.30;99.90;;;;;;5013003;28;20180;-66
2023/03/10 05:37:42;;;;;;;1999.90;999.90;;;10.40;99.90;;;;;;5012685;28;20299;-66
2023/03/10 05:40:14;;;;;;;1999.90;999.90;;;10.50;99.90;;;;;;5012623;28;20885;-66
2023/03/10 05:42:40;;;;;;;1999.90;999.90;;;10.40;99.90;;;;;;5012563;28;20418;-66
2023/03/10 05:45:07;;;;;;;1999.90;999.90;;;10.40;99.90;;;;;;5012461;28;20410;-66
2023/03/10 05:47:32;;;;;;;1999.90;999.90;;;10.40;99.90;;;;;;5012690;28;20174;-66
2023/03/10 05:49:59;;;;;;;1999.90;999.90;;;10.40;99.90;;;;;;5012632;28;20408;-66
2023/03/10 05:52:25;;;;;;;1999.90;999.90;;;10.40;99.90;;;;;;5012433;28;20200;-65
2023/03/10 05:54:50;;;;;;;1999.90;999.90;;;10.50;99.90;;;;;;5012468;28;20411;-66
2023/03/10 05:57:16;;;;;;;1999.90;999.90;;;10.60;99.90;;;;;;5012500;28;20654;-65
2023/03/10 05:59:42;;;;;;;1999.90;999.90;;;10.60;99.90;;;;;;5012501;28;20290;-65
2023/03/10 06:02:07;;;;;;;1999.90;999.90;;;10.60;99.90;;;;;;5012257;28;20657;-66
2023/03/10 06:04:33;;;;;;;1999.90;999.90;;;10.60;99.90;;;;;;5012502;28;20180;-65
2023/03/10 06:06:59;;;;;;;1999.90;999.90;;;10.60;99.90;;;;;;5012368;28;20176;-66
2023/03/10 06:09:30;;;;;;;1999.90;999.90;;;10.60;99.90;;;;;;5012314;28;20176;-66
2023/03/10 06:11:56;;;;;;;1999.90;999.90;;;10.50;99.90;;;;;;5011880;28;20453;-66
2023/03/10 06:14:22;;;;;;;1999.90;999.90;;;10.60;99.90;;;;;;5012281;28;20427;-66
2023/03/10 06:16:50;;;;;;;1999.90;999.90;;;10.60;99.90;;;;;;5012151;28;20423;-66
2023/03/10 06:19:19;;;;;;;1999.90;999.90;;;10.70;99.90;;;;;;5012274;28;20459;-66
2023/03/10 06:21:45;;;;;;;1999.90;999.90;;;10.70;99.90;;;;;;5011919;28;20955;-66
2023/03/10 06:24:11;;;;;;;1999.90;999.90;;;10.60;99.90;;;;;;5012155;28;20415;-67
2023/03/10 06:26:37;;;;;;;1999.90;999.90;;;10.70;99.90;;;;;;5011970;28;20199;-67
2023/03/10 06:29:02;;;;;;;1999.90;999.90;;;10.60;99.90;;;;;;5012164;28;20184;-67
2023/03/10 06:31:28;;;;;;;1999.90;999.90;;;10.70;99.90;;;;;;5011946;28;20424;-64
2023/03/10 06:33:54;;;;;;;1999.90;999.90;;;10.70;99.90;;;;;;5012098;28;20192;-67
2023/03/10 06:36:21;;;;;;;1999.90;999.90;;;10.60;99.90;;;;;;5012095;28;20176;-68
2023/03/10 06:38:48;;;;;;;1999.90;999.90;;;10.70;99.90;;;;;;5011946;28;20461;-67
2023/03/10 06:41:15;;;;;;;1999.90;999.90;;;10.70;99.90;;;;;;5011899;28;20424;-65
2023/03/10 06:43:41;;;;;;;1999.90;999.90;;;10.70;99.90;;;;;;5011718;28;20404;-67
2023/03/10 06:46:08;;;;;;;1999.90;999.90;;;10.80;99.90;;;;;;5011874;28;20407;-67
2023/03/10 06:48:36;;;;;;;1999.90;999.90;;;10.60;99.90;;;;;;5011948;28;20414;-67
2023/03/10 06:51:05;;;;;;;1999.90;999.90;;;10.70;99.90;;;;;;5027347;28;20952;-67
2023/03/10 06:53:31;;;;;;;1999.90;999.90;;;10.70;99.90;;;;;;5031389;28;20462;-67
2023/03/10 06:56:11;;;;;;;1999.90;999.90;;;10.80;99.90;;;;;;5031480;28;21052;-66
2023/03/10 06:58:37;;;;;;;1999.90;999.90;;;10.80;99.90;;;;;;5034529;28;20229;-66
2023/03/10 07:01:04;;;;;;;1999.90;999.90;;;10.70;99.90;;;;;;5035675;28;20966;-66
2023/03/10 07:03:30;;;;;;;1999.90;999.90;;;10.80;99.90;;;;;;5035257;28;21081;-66
2023/03/10 07:05:57;;;;;;;1999.90;999.90;;;10.80;99.90;;;;;;5035227;28;20410;-67
2023/03/10 07:08:23;;;;;;;1999.90;999.90;;;10.80;99.90;;;;;;5035201;28;20176;-66
2023/03/10 07:10:49;;;;;;;1999.90;999.90;;;10.80;99.90;;;;;;5035024;28;20504;-66
2023/03/10 07:13:16;;;;;;;1999.90;999.90;;;10.90;99.90;;;;;;5035161;28;20171;-66
2023/03/10 07:15:42;;;;;;;1999.90;999.90;;;10.90;99.90;;;;;;5035123;28;20198;-66
2023/03/10 07:18:08;;;;;;;1999.90;999.90;;;10.90;99.90;;;;;;5017191;28;20454;-66
2023/03/10 07:20:34;;;;;;;1999.90;999.90;;;10.80;99.90;;;;;;5035076;28;20827;-66
2023/03/10 07:22:59;;;;;;;1999.90;999.90;;;10.80;99.90;;;;;;5034735;28;20165;-68
2023/03/10 07:25:26;;;;;;;1999.90;999.90;;;10.90;99.90;;;;;;5035205;28;20417;-66
2023/03/10 07:27:51;;;;;;;1999.90;999.90;;;10.90;99.90;;;;;;5034821;28;20179;-66
2023/03/10 07:30:17;;;;;;;1999.90;999.90;;;10.90;99.90;;;;;;5034854;28;20410;-66
2023/03/10 07:32:43;;;;;;;1999.90;999.90;;;10.90;99.90;;;;;;5034669;28;20182;-66
2023/03/10 07:35:09;;;;;;;1999.90;999.90;;;11.00;99.90;;;;;;5034816;28;20172;-66
2023/03/10 07:37:39;;;;;;;1999.90;999.90;;;11.00;99.90;;;;;;5034525;28;20545;-67
2023/03/10 07:40:08;;;;;;;1999.90;999.90;;;11.30;99.90;;;;;;5034619;28;20434;-66
2023/03/10 07:42:34;;;;;;;1999.90;999.90;;;11.10;99.90;;;;;;5034476;28;20429;-67
2023/03/10 07:44:59;;;;;;;1999.90;999.90;;;11.20;99.90;;;;;;5034623;28;20411;-67
2023/03/10 07:47:25;;;;;;;1999.90;999.90;;;11.20;99.90;;;;;;5034556;28;20171;-67
2023/03/10 07:49:51;;;;;;;1999.90;999.90;;;11.20;99.90;;;;;;5034511;28;20173;-67
2023/03/10 07:52:18;;;;;;;1999.90;999.90;;;11.30;99.90;;;;;;5034190;28;20577;-67
2023/03/10 07:54:44;;;;;;;1999.90;999.90;;;11.30;99.90;;;;;;5034422;28;20511;-66
2023/03/10 07:57:13;;;;;;;1999.90;999.90;;;11.40;99.90;;;;;;5034420;28;20406;-66
2023/03/10 07:59:40;;;;;;;1999.90;999.90;;;11.50;99.90;;;;;;5034268;28;20896;-68
2023/03/10 08:02:08;;;;;;;1999.90;999.90;;;11.50;99.90;;;;;;5034050;28;20498;-67
2023/03/10 08:04:34;;;;;;;1999.90;999.90;;;11.50;99.90;;;;;;5034249;28;20450;-67
2023/03/10 08:07:01;;;;;;;1999.90;999.90;;;11.60;99.90;;;;;;5034093;28;20414;-67
2023/03/10 08:09:28;;;;;;;1999.90;999.90;;;11.70;99.90;;;;;;5033041;28;20211;-68
2023/03/10 08:11:54;;;;;;;1999.90;999.90;;;11.70;99.90;;;;;;5033803;28;20449;-66
2023/03/10 08:14:22;;;;;;;1999.90;999.90;;;11.80;99.90;;;;;;5034168;28;20815;-67
2023/03/10 08:16:49;;;;;;;1999.90;999.90;;;11.90;99.90;;;;;;5033867;28;20778;-67
2023/03/10 08:19:14;;;;;;;1999.90;999.90;;;11.90;99.90;;;;;;5033858;28;20458;-67
2023/03/10 08:21:40;;;;;;;1999.90;999.90;;;11.90;99.90;;;;;;5033598;28;20526;-66
2023/03/10 08:24:06;;;;;;;1999.90;999.90;;;11.90;99.90;;;;;;5033885;28;20196;-65
2023/03/10 08:26:31;;;;;;;1999.90;999.90;;;11.90;99.90;;;;;;5033863;28;20234;-65
2023/03/10 08:28:57;;;;;;;1999.90;999.90;;;12.00;99.90;;;;;;5033837;28;20264;-65
2023/03/10 08:31:22;;;;;;;1999.90;999.90;;;12.10;99.90;;;;;;5033605;28;20200;-65
2023/03/10 08:33:49;;;;;;;1999.90;999.90;;;12.10;99.90;;;;;;5033471;28;20207;-66
2023/03/10 08:36:20;;;;;;;1999.90;999.90;;;12.10;99.90;;;;;;5033501;28;20217;-65
2023/03/10 08:38:46;;;;;;;1999.90;999.90;;;12.20;99.90;;;;;;5033798;28;20801;-65
2023/03/10 08:41:27;;;;;;;1999.90;999.90;;;12.20;99.90;;;;;;5033503;28;20426;-66
2023/03/10 08:43:54;;;;;;;1999.90;999.90;;;12.20;99.90;;;;;;5033331;28;20926;-67
2023/03/10 08:46:21;;;;;;;1999.90;999.90;;;12.30;99.90;;;;;;5033307;28;20399;-66
2023/03/10 08:48:47;;;;;;;1999.90;999.90;;;12.30;99.90;;;;;;5033641;28;20414;-66
2023/03/10 08:51:13;;;;;;;1999.90;999.90;;;12.30;99.90;;;;;;5033226;28;20924;-66
2023/03/10 08:53:39;;;;;;;1999.90;999.90;;;12.30;99.90;;;;;;5033252;28;20408;-65
2023/03/10 08:56:06;;;;;;;1999.90;999.90;;;12.40;99.90;;;;;;5033161;28;20932;-66
2023/03/10 08:58:32;;;;;;;1999.90;999.90;;;12.50;99.90;;;;;;5033196;28;20462;-66
2023/03/10 09:00:58;;;;;;;1999.90;999.90;;;12.60;99.90;;;;;;5032990;28;20442;-66
2023/03/10 09:03:24;;;;;;;1999.90;999.90;;;12.70;99.90;;;;;;5032911;28;20404;-66
2023/03/10 09:05:50;;;;;;;1999.90;999.90;;;12.80;99.90;;;;;;5032966;28;20201;-68
2023/03/10 09:08:16;;;;;;;1999.90;999.90;;;13.00;99.90;;;;;;5032953;28;20446;-66
2023/03/10 09:10:43;;;;;;;1999.90;999.90;;;13.10;99.90;;;;;;5032999;28;20260;-67
2023/03/10 09:13:10;;;;;;;1999.90;999.90;;;13.20;99.90;;;;;;5032809;28;20812;-66
2023/03/10 09:15:39;;;;;;;1999.90;999.90;;;13.30;99.90;;;;;;5032824;28;20501;-66
2023/03/10 09:18:07;;;;;;;1999.90;999.90;;;13.40;99.90;;;;;;5032903;28;21000;-66
2023/03/10 09:20:32;;;;;;;1999.90;999.90;;;13.30;99.90;;;;;;5032443;28;20439;-66
2023/03/10 09:22:58;;;;;;;1999.90;999.90;;;13.30;99.90;;;;;;5032531;28;20401;-66
2023/03/10 09:25:23;;;;;;;1999.90;999.90;;;13.30;99.90;;;;;;5032739;28;20251;-66
2023/03/10 09:27:49;;;;;;;1999.90;999.90;;;13.30;99.90;;;;;;5029793;28;20177;-66
2023/03/10 09:30:15;;;;;;;1999.90;999.90;;;13.20;99.90;;;;;;5032131;28;20226;-66
2023/03/10 09:32:41;;;;;;;1999.90;999.90;;;13.10;99.90;;;;;;5031957;28;20188;-67
2023/03/10 09:35:06;;;;;;;1999.90;999.90;;;13.00;99.90;;;;;;5031747;28;20257;-66
2023/03/10 09:37:32;;;;;;;1999.90;999.90;;;13.00;99.90;;;;;;5031969;28;20182;-66
2023/03/10 09:39:58;;;;;;;1999.90;999.90;;;12.90;99.90;;;;;;5032166;28;20173;-67
2023/03/10 09:42:37;;;;;;;1999.90;999.90;;;12.90;99.90;;;;;;5031422;28;20655;-66
2023/03/10 09:45:11;;;;;;;1999.90;999.90;;;12.80;99.90;;;;;;5032150;28;20193;-67
2023/03/10 09:47:49;;;;;;;1999.90;999.90;;;12.90;99.90;;;;;;5031909;28;20453;-66
2023/03/10 09:50:32;;;;;;;1999.90;999.90;;;13.10;99.90;;;;;;5031481;28;20426;-66
2023/03/10 09:53:23;;;;;;;1999.90;999.90;;;13.30;99.90;;;;;;5031691;28;20459;-66
2023/03/10 09:55:48;;;;;;;1999.90;999.90;;;13.50;99.90;;;;;;5032008;28;20402;-67
2023/03/10 09:58:38;;;;;;;1999.90;999.90;;;13.70;99.90;;;;;;5031190;28;20462;-67
2023/03/10 10:01:05;;;;;;;1999.90;999.90;;;14.00;99.90;;;;;;5031838;28;20712;-66
2023/03/10 10:03:35;;;;;;;1999.90;999.90;;;13.90;99.90;;;;;;5032221;28;20433;-65
2023/03/10 10:06:03;;;;;;;1999.90;999.90;;;13.90;99.90;;;;;;5031597;28;20463;-67
2023/03/10 10:08:43;;;;;;;1999.90;999.90;;;13.80;99.90;;;;;;5032125;28;20459;-67
2023/03/10 10:11:15;;;;;;;1999.90;999.90;;;13.80;99.90;;;;;;5031952;28;20553;-66
2023/03/10 10:13:41;;;;;;;1999.90;999.90;;;13.70;99.90;;;;;;5031474;28;20405;-65
2023/03/10 10:16:32;;;;;;;1999.90;999.90;;;13.60;99.90;;;;;;5031656;28;20424;-66
2023/03/10 10:19:16;;;;;;;1999.90;999.90;;;13.50;99.90;;;;;;5031359;28;20489;-66
2023/03/10 10:22:14;;;;;;;1999.90;999.90;;;13.40;99.90;;;;;;5033606;28;20933;-65
2023/03/10 10:24:40;;;;;;;1999.90;999.90;;;13.20;99.90;;;;;;5032024;28;20451;-65
2023/03/10 10:27:06;;;;;;;1999.90;999.90;;;13.10;99.90;;;;;;5031197;28;20400;-64
2023/03/10 10:29:37;;;;;;;1999.90;999.90;;;13.00;99.90;;;;;;5029866;28;20838;-67
2023/03/10 10:32:09;;;;;;;1999.90;999.90;;;12.90;99.90;;;;;;5017906;28;20194;-68
2023/03/10 10:34:37;;;;;;;1999.90;999.90;;;12.80;99.90;;;;;;5011693;28;20425;-66
2023/03/10 10:37:34;;;;;;;1999.90;999.90;;;12.50;99.90;;;;;;5011387;28;20477;-68
2023/03/10 10:40:00;;;;;;;1999.90;999.90;;;12.40;99.90;;;;;;5011677;28;20786;-68
2023/03/10 10:42:33;;;;;;;1999.90;999.90;;;12.20;99.90;;;;;;5012700;28;20420;-65
2023/03/10 10:45:05;;;;;;;1999.90;999.90;;;12.20;99.90;;;;;;5012442;28;20467;-65
2023/03/10 10:47:44;;;;;;;1999.90;999.90;;;12.20;99.90;;;;;;5011404;28;20422;-67
2023/03/10 10:50:26;;;;;;;1999.90;999.90;;;12.10;99.90;;;;;;5011253;28;20450;-67
2023/03/10 10:53:12;;;;;;;1999.90;999.90;;;12.30;99.90;;;;;;5011680;28;20408;-68
2023/03/10 10:55:39;;;;;;;1999.90;999.90;;;12.40;99.90;;;;;;5011606;28;20435;-70
2023/03/10 10:58:24;;;;;;;1999.90;999.90;;;12.40;99.90;;;;;;5010823;28;21492;-67
2023/03/10 11:00:58;;;;;;;1999.90;999.90;;;12.40;99.90;;;;;;5011876;28;20981;-67
2023/03/10 11:03:35;;;;;;;1999.90;999.90;;;12.30;99.90;;;;;;5011280;28;20455;-66
2023/03/10 11:06:33;;;;;;;1999.90;999.90;;;12.30;99.90;;;;;;5011959;28;20449;-67
2023/03/10 11:09:08;;;;;;;1999.90;999.90;;;12.20;99.90;;;;;;5011040;28;20429;-67
2023/03/10 11:11:43;;;;;;;1999.90;999.90;;;12.20;99.90;;;;;;5009194;28;20509;-67
2023/03/10 11:14:32;;;;;;;1999.90;999.90;;;12.10;99.90;;;;;;5009564;28;20796;-67
2023/03/10 11:17:22;;;;;;;1999.90;999.90;;;12.00;99.90;;;;;;5010417;28;20463;-67
2023/03/10 11:20:05;;;;;;;1999.90;999.90;;;11.80;99.90;;;;;;5009098;28;20895;-71
2023/03/10 11:22:37;;;;;;;1999.90;999.90;;;11.60;99.90;;;;;;5009180;28;20924;-68
2023/03/10 11:25:13;;;;;;;1999.90;999.90;;;11.50;99.90;;;;;;5009437;28;20415;-68
2023/03/10 11:27:48;;;;;;;1999.90;999.90;;;11.30;99.90;;;;;;5008952;28;20465;-70
2023/03/10 11:30:44;;;;;;;1999.90;999.90;;;11.10;99.90;;;;;;5009623;28;20908;-70
2023/03/10 11:33:25;;;;;;;1999.90;999.90;;;11.10;99.90;;;;;;5007602;28;20426;-67
2023/03/10 11:35:57;;;;;;;1999.90;999.90;;;10.90;99.90;;;;;;5010077;28;20416;-68
2023/03/10 11:38:45;;;;;;;1999.90;999.90;;;10.90;99.90;;;;;;4992252;28;21026;-68
2023/03/10 11:41:22;;;;;;;1999.90;999.90;;;10.70;99.90;;;;;;5009646;28;21199;-68
2023/03/10 11:43:56;;;;;;;1999.90;999.90;;;10.60;99.90;;;;;;5009442;28;20834;-69
2023/03/10 11:46:25;;;;;;;1999.90;999.90;;;10.50;99.90;;;;;;5009791;28;20416;-68
2023/03/10 11:48:59;;;;;;;1999.90;999.90;;;10.50;99.90;;;;;;5008841;28;20453;-68
2023/03/10 11:51:44;;;;;;;1999.90;999.90;;;10.50;99.90;;;;;;5009023;28;20618;-69
2023/03/10 11:54:18;;;;;;;1999.90;999.90;;;10.40;99.90;;;;;;5009650;28;21109;-68
2023/03/10 11:56:44;;;;;;;1999.90;999.90;;;10.40;99.90;;;;;;5008446;28;20426;-68
2023/03/10 11:59:21;;;;;;;1999.90;999.90;;;10.30;99.90;;;;;;5008359;28;20454;-69
2023/03/10 12:02:15;;;;;;;1999.90;999.90;;;10.40;99.90;;;;;;5008818;28;20968;-68
2023/03/10 12:04:48;;;;;;;1999.90;999.90;;;10.50;99.90;;;;;;5009430;28;20419;-68
2023/03/10 12:07:32;;;;;;;1999.90;999.90;;;10.60;99.90;;;;;;5009144;28;20584;-68